<?xml version="1.0" encoding="UTF-8" standalone="no" ?>
<gpx xmlns="http://www.topografix.com/GPX/1/1" xmlns:xsi="http://www.w3.org/2001/XMLSchema-instance" xsi:schemaLocation="http://www.topografix.com/GPX/1/1 http://www.topografix.com/GPX/1/1/gpx.xsd" version="1.1" creator="VisuGPX - https://www.visugpx.com">
  <metadata>
    <name>14072472-Saint Hilaire de Mortagne</name>
  </metadata>
  <trk>
    <name><![CDATA[14072472-Enregistrement du 30/12/2021]]></name>
    <trkseg>
      <trkpt lat="46.97546" lon="-0.93935">
        <ele>110</ele>
        <time>2021-12-30T16:57:27Z</time>
      </trkpt>
      <trkpt lat="46.9755" lon="-0.93937">
        <ele>110</ele>
        <time>2021-12-30T16:57:33Z</time>
      </trkpt>
      <trkpt lat="46.97575" lon="-0.93919">
        <ele>108</ele>
        <time>2021-12-30T16:58:10Z</time>
      </trkpt>
      <trkpt lat="46.97592" lon="-0.93926">
        <ele>107</ele>
        <time>2021-12-30T16:58:33Z</time>
      </trkpt>
      <trkpt lat="46.9762" lon="-0.93946">
        <ele>105</ele>
        <time>2021-12-30T16:59:15Z</time>
      </trkpt>
      <trkpt lat="46.97633" lon="-0.93961">
        <ele>104</ele>
        <time>2021-12-30T16:59:37Z</time>
      </trkpt>
      <trkpt lat="46.97646" lon="-0.93967">
        <ele>103</ele>
        <time>2021-12-30T16:59:55Z</time>
      </trkpt>
      <trkpt lat="46.97685" lon="-0.94021">
        <ele>100</ele>
        <time>2021-12-30T17:01:07Z</time>
      </trkpt>
      <trkpt lat="46.97759" lon="-0.94078">
        <ele>94</ele>
        <time>2021-12-30T17:02:58Z</time>
      </trkpt>
      <trkpt lat="46.97767" lon="-0.94088">
        <ele>94</ele>
        <time>2021-12-30T17:03:12Z</time>
      </trkpt>
      <trkpt lat="46.97774" lon="-0.94115">
        <ele>94</ele>
        <time>2021-12-30T17:03:39Z</time>
      </trkpt>
      <trkpt lat="46.97822" lon="-0.94179">
        <ele>93</ele>
        <time>2021-12-30T17:05:05Z</time>
      </trkpt>
      <trkpt lat="46.97843" lon="-0.94254">
        <ele>92</ele>
        <time>2021-12-30T17:06:19Z</time>
      </trkpt>
      <trkpt lat="46.97835" lon="-0.94334">
        <ele>93</ele>
        <time>2021-12-30T17:07:33Z</time>
      </trkpt>
      <trkpt lat="46.97811" lon="-0.94429">
        <ele>93</ele>
        <time>2021-12-30T17:09:05Z</time>
      </trkpt>
      <trkpt lat="46.978" lon="-0.94461">
        <ele>92</ele>
        <time>2021-12-30T17:09:38Z</time>
      </trkpt>
      <trkpt lat="46.97766" lon="-0.94523">
        <ele>88</ele>
        <time>2021-12-30T17:10:50Z</time>
      </trkpt>
      <trkpt lat="46.97753" lon="-0.94564">
        <ele>86</ele>
        <time>2021-12-30T17:11:31Z</time>
      </trkpt>
      <trkpt lat="46.97751" lon="-0.94653">
        <ele>83</ele>
        <time>2021-12-30T17:12:52Z</time>
      </trkpt>
      <trkpt lat="46.97754" lon="-0.94699">
        <ele>81</ele>
        <time>2021-12-30T17:13:34Z</time>
      </trkpt>
      <trkpt lat="46.97737" lon="-0.94704">
        <ele>82</ele>
        <time>2021-12-30T17:13:57Z</time>
      </trkpt>
      <trkpt lat="46.97731" lon="-0.9471">
        <ele>82</ele>
        <time>2021-12-30T17:14:07Z</time>
      </trkpt>
      <trkpt lat="46.97696" lon="-0.94765">
        <ele>82</ele>
        <time>2021-12-30T17:15:16Z</time>
      </trkpt>
      <trkpt lat="46.97684" lon="-0.94799">
        <ele>80</ele>
        <time>2021-12-30T17:15:50Z</time>
      </trkpt>
      <trkpt lat="46.9765" lon="-0.94865">
        <ele>80</ele>
        <time>2021-12-30T17:17:06Z</time>
      </trkpt>
      <trkpt lat="46.97613" lon="-0.94905">
        <ele>82</ele>
        <time>2021-12-30T17:18:07Z</time>
      </trkpt>
      <trkpt lat="46.97587" lon="-0.94919">
        <ele>84</ele>
        <time>2021-12-30T17:18:44Z</time>
      </trkpt>
      <trkpt lat="46.97563" lon="-0.94923">
        <ele>83</ele>
        <time>2021-12-30T17:19:16Z</time>
      </trkpt>
      <trkpt lat="46.97535" lon="-0.94918">
        <ele>82</ele>
        <time>2021-12-30T17:19:54Z</time>
      </trkpt>
      <trkpt lat="46.97506" lon="-0.94906">
        <ele>82</ele>
        <time>2021-12-30T17:20:34Z</time>
      </trkpt>
      <trkpt lat="46.97486" lon="-0.94892">
        <ele>82</ele>
        <time>2021-12-30T17:21:04Z</time>
      </trkpt>
      <trkpt lat="46.9743" lon="-0.94808">
        <ele>83</ele>
        <time>2021-12-30T17:22:51Z</time>
      </trkpt>
      <trkpt lat="46.97403" lon="-0.9476">
        <ele>86</ele>
        <time>2021-12-30T17:23:47Z</time>
      </trkpt>
      <trkpt lat="46.97377" lon="-0.94726">
        <ele>84</ele>
        <time>2021-12-30T17:24:34Z</time>
      </trkpt>
      <trkpt lat="46.97376" lon="-0.94714">
        <ele>85</ele>
        <time>2021-12-30T17:24:45Z</time>
      </trkpt>
      <trkpt lat="46.97412" lon="-0.94639">
        <ele>98</ele>
        <time>2021-12-30T17:26:08Z</time>
      </trkpt>
      <trkpt lat="46.97434" lon="-0.94605">
        <ele>103</ele>
        <time>2021-12-30T17:26:51Z</time>
      </trkpt>
      <trkpt lat="46.9747" lon="-0.94581">
        <ele>106</ele>
        <time>2021-12-30T17:27:44Z</time>
      </trkpt>
      <trkpt lat="46.97474" lon="-0.94575">
        <ele>106</ele>
        <time>2021-12-30T17:27:51Z</time>
      </trkpt>
      <trkpt lat="46.97472" lon="-0.94568">
        <ele>107</ele>
        <time>2021-12-30T17:27:58Z</time>
      </trkpt>
      <trkpt lat="46.97461" lon="-0.94558">
        <ele>107</ele>
        <time>2021-12-30T17:28:16Z</time>
      </trkpt>
      <trkpt lat="46.97409" lon="-0.94486">
        <ele>114</ele>
        <time>2021-12-30T17:29:51Z</time>
      </trkpt>
      <trkpt lat="46.97396" lon="-0.94461">
        <ele>116</ele>
        <time>2021-12-30T17:30:20Z</time>
      </trkpt>
      <trkpt lat="46.97388" lon="-0.94458">
        <ele>116</ele>
        <time>2021-12-30T17:30:31Z</time>
      </trkpt>
      <trkpt lat="46.97357" lon="-0.94468">
        <ele>115</ele>
        <time>2021-12-30T17:31:13Z</time>
      </trkpt>
      <trkpt lat="46.97344" lon="-0.94468">
        <ele>115</ele>
        <time>2021-12-30T17:31:30Z</time>
      </trkpt>
      <trkpt lat="46.97333" lon="-0.94463">
        <ele>116</ele>
        <time>2021-12-30T17:31:46Z</time>
      </trkpt>
      <trkpt lat="46.97242" lon="-0.94385">
        <ele>105</ele>
        <time>2021-12-30T17:34:06Z</time>
      </trkpt>
      <trkpt lat="46.97183" lon="-0.94316">
        <ele>99</ele>
        <time>2021-12-30T17:35:47Z</time>
      </trkpt>
      <trkpt lat="46.97171" lon="-0.94307">
        <ele>99</ele>
        <time>2021-12-30T17:36:05Z</time>
      </trkpt>
      <trkpt lat="46.97157" lon="-0.9427">
        <ele>104</ele>
        <time>2021-12-30T17:36:44Z</time>
      </trkpt>
      <trkpt lat="46.97155" lon="-0.94226">
        <ele>108</ele>
        <time>2021-12-30T17:37:24Z</time>
      </trkpt>
      <trkpt lat="46.97159" lon="-0.94171">
        <ele>111</ele>
        <time>2021-12-30T17:38:14Z</time>
      </trkpt>
      <trkpt lat="46.97155" lon="-0.94151">
        <ele>112</ele>
        <time>2021-12-30T17:38:33Z</time>
      </trkpt>
      <trkpt lat="46.97146" lon="-0.9415">
        <ele>112</ele>
        <time>2021-12-30T17:38:45Z</time>
      </trkpt>
      <trkpt lat="46.97136" lon="-0.94163">
        <ele>112</ele>
        <time>2021-12-30T17:39:03Z</time>
      </trkpt>
      <trkpt lat="46.9711" lon="-0.9424">
        <ele>106</ele>
        <time>2021-12-30T17:40:21Z</time>
      </trkpt>
      <trkpt lat="46.97092" lon="-0.94253">
        <ele>103</ele>
        <time>2021-12-30T17:40:48Z</time>
      </trkpt>
      <trkpt lat="46.97077" lon="-0.94255">
        <ele>102</ele>
        <time>2021-12-30T17:41:08Z</time>
      </trkpt>
      <trkpt lat="46.96988" lon="-0.94228">
        <ele>108</ele>
        <time>2021-12-30T17:43:09Z</time>
      </trkpt>
      <trkpt lat="46.96969" lon="-0.94228">
        <ele>110</ele>
        <time>2021-12-30T17:43:35Z</time>
      </trkpt>
      <trkpt lat="46.96959" lon="-0.94231">
        <ele>110</ele>
        <time>2021-12-30T17:43:48Z</time>
      </trkpt>
      <trkpt lat="46.96925" lon="-0.94257">
        <ele>111</ele>
        <time>2021-12-30T17:44:40Z</time>
      </trkpt>
      <trkpt lat="46.96878" lon="-0.94306">
        <ele>107</ele>
        <time>2021-12-30T17:45:57Z</time>
      </trkpt>
      <trkpt lat="46.96809" lon="-0.94327">
        <ele>106</ele>
        <time>2021-12-30T17:47:31Z</time>
      </trkpt>
      <trkpt lat="46.9678" lon="-0.94323">
        <ele>105</ele>
        <time>2021-12-30T17:48:10Z</time>
      </trkpt>
      <trkpt lat="46.96778" lon="-0.94326">
        <ele>105</ele>
        <time>2021-12-30T17:48:13Z</time>
      </trkpt>
      <trkpt lat="46.9674" lon="-0.94285">
        <ele>106</ele>
        <time>2021-12-30T17:49:16Z</time>
      </trkpt>
      <trkpt lat="46.96686" lon="-0.94212">
        <ele>101</ele>
        <time>2021-12-30T17:50:54Z</time>
      </trkpt>
      <trkpt lat="46.96667" lon="-0.94147">
        <ele>100</ele>
        <time>2021-12-30T17:51:59Z</time>
      </trkpt>
      <trkpt lat="46.96626" lon="-0.94114">
        <ele>96</ele>
        <time>2021-12-30T17:53:01Z</time>
      </trkpt>
      <trkpt lat="46.96618" lon="-0.94101">
        <ele>96</ele>
        <time>2021-12-30T17:53:17Z</time>
      </trkpt>
      <trkpt lat="46.96603" lon="-0.94097">
        <ele>94</ele>
        <time>2021-12-30T17:53:37Z</time>
      </trkpt>
      <trkpt lat="46.96595" lon="-0.94088">
        <ele>93</ele>
        <time>2021-12-30T17:53:51Z</time>
      </trkpt>
      <trkpt lat="46.96583" lon="-0.94066">
        <ele>92</ele>
        <time>2021-12-30T17:54:17Z</time>
      </trkpt>
      <trkpt lat="46.96564" lon="-0.94005">
        <ele>94</ele>
        <time>2021-12-30T17:55:18Z</time>
      </trkpt>
      <trkpt lat="46.96549" lon="-0.93895">
        <ele>98</ele>
        <time>2021-12-30T17:57:00Z</time>
      </trkpt>
      <trkpt lat="46.96544" lon="-0.93806">
        <ele>100</ele>
        <time>2021-12-30T17:58:21Z</time>
      </trkpt>
      <trkpt lat="46.96545" lon="-0.93779">
        <ele>101</ele>
        <time>2021-12-30T17:58:46Z</time>
      </trkpt>
      <trkpt lat="46.96556" lon="-0.93733">
        <ele>103</ele>
        <time>2021-12-30T17:59:30Z</time>
      </trkpt>
      <trkpt lat="46.96554" lon="-0.93667">
        <ele>103</ele>
        <time>2021-12-30T18:00:30Z</time>
      </trkpt>
      <trkpt lat="46.96566" lon="-0.93563">
        <ele>105</ele>
        <time>2021-12-30T18:02:06Z</time>
      </trkpt>
      <trkpt lat="46.96558" lon="-0.93502">
        <ele>104</ele>
        <time>2021-12-30T18:03:03Z</time>
      </trkpt>
      <trkpt lat="46.96587" lon="-0.93329">
        <ele>105</ele>
        <time>2021-12-30T18:05:45Z</time>
      </trkpt>
      <trkpt lat="46.96592" lon="-0.93204">
        <ele>105</ele>
        <time>2021-12-30T18:07:39Z</time>
      </trkpt>
      <trkpt lat="46.96607" lon="-0.93144">
        <ele>106</ele>
        <time>2021-12-30T18:08:37Z</time>
      </trkpt>
      <trkpt lat="46.96627" lon="-0.93099">
        <ele>107</ele>
        <time>2021-12-30T18:09:26Z</time>
      </trkpt>
      <trkpt lat="46.96662" lon="-0.93042">
        <ele>106</ele>
        <time>2021-12-30T18:10:36Z</time>
      </trkpt>
      <trkpt lat="46.96706" lon="-0.92995">
        <ele>106</ele>
        <time>2021-12-30T18:11:49Z</time>
      </trkpt>
      <trkpt lat="46.96723" lon="-0.92983">
        <ele>107</ele>
        <time>2021-12-30T18:12:14Z</time>
      </trkpt>
      <trkpt lat="46.96741" lon="-0.92983">
        <ele>108</ele>
        <time>2021-12-30T18:12:38Z</time>
      </trkpt>
      <trkpt lat="46.96782" lon="-0.92882">
        <ele>107</ele>
        <time>2021-12-30T18:14:25Z</time>
      </trkpt>
      <trkpt lat="46.96837" lon="-0.92829">
        <ele>114</ele>
        <time>2021-12-30T18:15:53Z</time>
      </trkpt>
      <trkpt lat="46.96847" lon="-0.92827">
        <ele>116</ele>
        <time>2021-12-30T18:16:06Z</time>
      </trkpt>
      <trkpt lat="46.96858" lon="-0.92835">
        <ele>117</ele>
        <time>2021-12-30T18:16:23Z</time>
      </trkpt>
      <trkpt lat="46.96886" lon="-0.9287">
        <ele>121</ele>
        <time>2021-12-30T18:17:12Z</time>
      </trkpt>
      <trkpt lat="46.96924" lon="-0.92905">
        <ele>125</ele>
        <time>2021-12-30T18:18:12Z</time>
      </trkpt>
      <trkpt lat="46.96955" lon="-0.92948">
        <ele>126</ele>
        <time>2021-12-30T18:19:09Z</time>
      </trkpt>
      <trkpt lat="46.96971" lon="-0.92963">
        <ele>127</ele>
        <time>2021-12-30T18:19:34Z</time>
      </trkpt>
      <trkpt lat="46.97012" lon="-0.92973">
        <ele>127</ele>
        <time>2021-12-30T18:20:29Z</time>
      </trkpt>
      <trkpt lat="46.97038" lon="-0.92962">
        <ele>129</ele>
        <time>2021-12-30T18:21:06Z</time>
      </trkpt>
      <trkpt lat="46.9706" lon="-0.92928">
        <ele>131</ele>
        <time>2021-12-30T18:21:48Z</time>
      </trkpt>
      <trkpt lat="46.97085" lon="-0.92867">
        <ele>132</ele>
        <time>2021-12-30T18:22:53Z</time>
      </trkpt>
      <trkpt lat="46.97153" lon="-0.9278">
        <ele>136</ele>
        <time>2021-12-30T18:24:53Z</time>
      </trkpt>
      <trkpt lat="46.9717" lon="-0.92739">
        <ele>137</ele>
        <time>2021-12-30T18:25:37Z</time>
      </trkpt>
      <trkpt lat="46.97189" lon="-0.92676">
        <ele>138</ele>
        <time>2021-12-30T18:26:40Z</time>
      </trkpt>
      <trkpt lat="46.97198" lon="-0.92661">
        <ele>138</ele>
        <time>2021-12-30T18:26:58Z</time>
      </trkpt>
      <trkpt lat="46.97218" lon="-0.92643">
        <ele>139</ele>
        <time>2021-12-30T18:27:29Z</time>
      </trkpt>
      <trkpt lat="46.97256" lon="-0.92629">
        <ele>139</ele>
        <time>2021-12-30T18:28:22Z</time>
      </trkpt>
      <trkpt lat="46.97278" lon="-0.92616">
        <ele>139</ele>
        <time>2021-12-30T18:28:53Z</time>
      </trkpt>
      <trkpt lat="46.97287" lon="-0.92602">
        <ele>139</ele>
        <time>2021-12-30T18:29:11Z</time>
      </trkpt>
      <trkpt lat="46.97281" lon="-0.92573">
        <ele>139</ele>
        <time>2021-12-30T18:29:38Z</time>
      </trkpt>
      <trkpt lat="46.97281" lon="-0.92542">
        <ele>140</ele>
        <time>2021-12-30T18:30:07Z</time>
      </trkpt>
      <trkpt lat="46.97288" lon="-0.92488">
        <ele>140</ele>
        <time>2021-12-30T18:30:57Z</time>
      </trkpt>
      <trkpt lat="46.97288" lon="-0.92442">
        <ele>140</ele>
        <time>2021-12-30T18:31:39Z</time>
      </trkpt>
      <trkpt lat="46.97294" lon="-0.92417">
        <ele>141</ele>
        <time>2021-12-30T18:32:03Z</time>
      </trkpt>
      <trkpt lat="46.97311" lon="-0.92378">
        <ele>141</ele>
        <time>2021-12-30T18:32:45Z</time>
      </trkpt>
      <trkpt lat="46.97318" lon="-0.92347">
        <ele>141</ele>
        <time>2021-12-30T18:33:15Z</time>
      </trkpt>
      <trkpt lat="46.97317" lon="-0.92221">
        <ele>142</ele>
        <time>2021-12-30T18:35:09Z</time>
      </trkpt>
      <trkpt lat="46.9732" lon="-0.92201">
        <ele>142</ele>
        <time>2021-12-30T18:35:28Z</time>
      </trkpt>
      <trkpt lat="46.97336" lon="-0.92162">
        <ele>143</ele>
        <time>2021-12-30T18:36:09Z</time>
      </trkpt>
      <trkpt lat="46.97326" lon="-0.92162">
        <ele>143</ele>
        <time>2021-12-30T18:36:23Z</time>
      </trkpt>
      <trkpt lat="46.97166" lon="-0.9208">
        <ele>141</ele>
        <time>2021-12-30T18:40:09Z</time>
      </trkpt>
      <trkpt lat="46.97104" lon="-0.92047">
        <ele>141</ele>
        <time>2021-12-30T18:41:37Z</time>
      </trkpt>
      <trkpt lat="46.97058" lon="-0.92017">
        <ele>139</ele>
        <time>2021-12-30T18:42:44Z</time>
      </trkpt>
      <trkpt lat="46.96976" lon="-0.91947">
        <ele>134</ele>
        <time>2021-12-30T18:44:51Z</time>
      </trkpt>
      <trkpt lat="46.96974" lon="-0.91934">
        <ele>133</ele>
        <time>2021-12-30T18:45:03Z</time>
      </trkpt>
      <trkpt lat="46.96965" lon="-0.91921">
        <ele>132</ele>
        <time>2021-12-30T18:45:20Z</time>
      </trkpt>
      <trkpt lat="46.96868" lon="-0.91829">
        <ele>126</ele>
        <time>2021-12-30T18:47:54Z</time>
      </trkpt>
      <trkpt lat="46.9685" lon="-0.91807">
        <ele>121</ele>
        <time>2021-12-30T18:48:25Z</time>
      </trkpt>
      <trkpt lat="46.96841" lon="-0.91827">
        <ele>123</ele>
        <time>2021-12-30T18:48:47Z</time>
      </trkpt>
      <trkpt lat="46.96835" lon="-0.91829">
        <ele>123</ele>
        <time>2021-12-30T18:48:55Z</time>
      </trkpt>
      <trkpt lat="46.96809" lon="-0.91857">
        <ele>119</ele>
        <time>2021-12-30T18:49:38Z</time>
      </trkpt>
      <trkpt lat="46.96796" lon="-0.91893">
        <ele>117</ele>
        <time>2021-12-30T18:50:15Z</time>
      </trkpt>
      <trkpt lat="46.96783" lon="-0.91894">
        <ele>115</ele>
        <time>2021-12-30T18:50:33Z</time>
      </trkpt>
      <trkpt lat="46.96772" lon="-0.91882">
        <ele>113</ele>
        <time>2021-12-30T18:50:51Z</time>
      </trkpt>
      <trkpt lat="46.96769" lon="-0.91886">
        <ele>112</ele>
        <time>2021-12-30T18:50:57Z</time>
      </trkpt>
      <trkpt lat="46.96765" lon="-0.91912">
        <ele>112</ele>
        <time>2021-12-30T18:51:21Z</time>
      </trkpt>
      <trkpt lat="46.96757" lon="-0.91922">
        <ele>111</ele>
        <time>2021-12-30T18:51:35Z</time>
      </trkpt>
      <trkpt lat="46.96739" lon="-0.91963">
        <ele>112</ele>
        <time>2021-12-30T18:52:19Z</time>
      </trkpt>
      <trkpt lat="46.96737" lon="-0.91991">
        <ele>113</ele>
        <time>2021-12-30T18:52:45Z</time>
      </trkpt>
      <trkpt lat="46.96742" lon="-0.92023">
        <ele>116</ele>
        <time>2021-12-30T18:53:15Z</time>
      </trkpt>
      <trkpt lat="46.96732" lon="-0.92052">
        <ele>116</ele>
        <time>2021-12-30T18:53:44Z</time>
      </trkpt>
      <trkpt lat="46.96733" lon="-0.92072">
        <ele>117</ele>
        <time>2021-12-30T18:54:03Z</time>
      </trkpt>
      <trkpt lat="46.96728" lon="-0.921">
        <ele>117</ele>
        <time>2021-12-30T18:54:29Z</time>
      </trkpt>
      <trkpt lat="46.96713" lon="-0.92126">
        <ele>116</ele>
        <time>2021-12-30T18:55:00Z</time>
      </trkpt>
      <trkpt lat="46.96707" lon="-0.92151">
        <ele>116</ele>
        <time>2021-12-30T18:55:24Z</time>
      </trkpt>
      <trkpt lat="46.96697" lon="-0.92168">
        <ele>115</ele>
        <time>2021-12-30T18:55:45Z</time>
      </trkpt>
      <trkpt lat="46.96686" lon="-0.922">
        <ele>115</ele>
        <time>2021-12-30T18:56:17Z</time>
      </trkpt>
      <trkpt lat="46.96686" lon="-0.92212">
        <ele>115</ele>
        <time>2021-12-30T18:56:28Z</time>
      </trkpt>
      <trkpt lat="46.96743" lon="-0.92215">
        <ele>125</ele>
        <time>2021-12-30T18:57:44Z</time>
      </trkpt>
      <trkpt lat="46.96752" lon="-0.92195">
        <ele>126</ele>
        <time>2021-12-30T18:58:06Z</time>
      </trkpt>
      <trkpt lat="46.96756" lon="-0.92164">
        <ele>125</ele>
        <time>2021-12-30T18:58:35Z</time>
      </trkpt>
      <trkpt lat="46.9677" lon="-0.92126">
        <ele>126</ele>
        <time>2021-12-30T18:59:14Z</time>
      </trkpt>
      <trkpt lat="46.96782" lon="-0.92116">
        <ele>127</ele>
        <time>2021-12-30T18:59:33Z</time>
      </trkpt>
      <trkpt lat="46.9679" lon="-0.92099">
        <ele>128</ele>
        <time>2021-12-30T18:59:51Z</time>
      </trkpt>
      <trkpt lat="46.96806" lon="-0.92084">
        <ele>131</ele>
        <time>2021-12-30T19:00:17Z</time>
      </trkpt>
      <trkpt lat="46.9682" lon="-0.92044">
        <ele>130</ele>
        <time>2021-12-30T19:00:58Z</time>
      </trkpt>
      <trkpt lat="46.96868" lon="-0.91985">
        <ele>129</ele>
        <time>2021-12-30T19:02:21Z</time>
      </trkpt>
      <trkpt lat="46.96883" lon="-0.91976">
        <ele>130</ele>
        <time>2021-12-30T19:02:43Z</time>
      </trkpt>
      <trkpt lat="46.96935" lon="-0.91965">
        <ele>132</ele>
        <time>2021-12-30T19:03:53Z</time>
      </trkpt>
      <trkpt lat="46.96962" lon="-0.91946">
        <ele>133</ele>
        <time>2021-12-30T19:04:33Z</time>
      </trkpt>
      <trkpt lat="46.96978" lon="-0.91945">
        <ele>134</ele>
        <time>2021-12-30T19:04:54Z</time>
      </trkpt>
      <trkpt lat="46.97004" lon="-0.91961">
        <ele>136</ele>
        <time>2021-12-30T19:05:32Z</time>
      </trkpt>
      <trkpt lat="46.97079" lon="-0.92025">
        <ele>140</ele>
        <time>2021-12-30T19:07:28Z</time>
      </trkpt>
      <trkpt lat="46.97138" lon="-0.92056">
        <ele>141</ele>
        <time>2021-12-30T19:08:51Z</time>
      </trkpt>
      <trkpt lat="46.9715" lon="-0.92066">
        <ele>141</ele>
        <time>2021-12-30T19:09:10Z</time>
      </trkpt>
      <trkpt lat="46.97329" lon="-0.92158">
        <ele>143</ele>
        <time>2021-12-30T19:13:23Z</time>
      </trkpt>
      <trkpt lat="46.97333" lon="-0.92175">
        <ele>143</ele>
        <time>2021-12-30T19:13:39Z</time>
      </trkpt>
      <trkpt lat="46.97324" lon="-0.92216">
        <ele>142</ele>
        <time>2021-12-30T19:14:19Z</time>
      </trkpt>
      <trkpt lat="46.97326" lon="-0.92327">
        <ele>142</ele>
        <time>2021-12-30T19:16:00Z</time>
      </trkpt>
      <trkpt lat="46.97319" lon="-0.9237">
        <ele>141</ele>
        <time>2021-12-30T19:16:40Z</time>
      </trkpt>
      <trkpt lat="46.97298" lon="-0.92428">
        <ele>140</ele>
        <time>2021-12-30T19:17:40Z</time>
      </trkpt>
      <trkpt lat="46.97296" lon="-0.92489">
        <ele>140</ele>
        <time>2021-12-30T19:18:35Z</time>
      </trkpt>
      <trkpt lat="46.97288" lon="-0.92545">
        <ele>140</ele>
        <time>2021-12-30T19:19:27Z</time>
      </trkpt>
      <trkpt lat="46.97293" lon="-0.92614">
        <ele>139</ele>
        <time>2021-12-30T19:20:31Z</time>
      </trkpt>
      <trkpt lat="46.97286" lon="-0.92612">
        <ele>139</ele>
        <time>2021-12-30T19:20:40Z</time>
      </trkpt>
      <trkpt lat="46.97261" lon="-0.92628">
        <ele>139</ele>
        <time>2021-12-30T19:21:17Z</time>
      </trkpt>
      <trkpt lat="46.97219" lon="-0.92645">
        <ele>139</ele>
        <time>2021-12-30T19:22:15Z</time>
      </trkpt>
      <trkpt lat="46.97201" lon="-0.92665">
        <ele>138</ele>
        <time>2021-12-30T19:22:45Z</time>
      </trkpt>
      <trkpt lat="46.97159" lon="-0.92775">
        <ele>136</ele>
        <time>2021-12-30T19:24:40Z</time>
      </trkpt>
      <trkpt lat="46.97144" lon="-0.92799">
        <ele>135</ele>
        <time>2021-12-30T19:25:09Z</time>
      </trkpt>
      <trkpt lat="46.97123" lon="-0.9282">
        <ele>134</ele>
        <time>2021-12-30T19:25:43Z</time>
      </trkpt>
      <trkpt lat="46.97104" lon="-0.92847">
        <ele>133</ele>
        <time>2021-12-30T19:26:18Z</time>
      </trkpt>
      <trkpt lat="46.97039" lon="-0.92965">
        <ele>129</ele>
        <time>2021-12-30T19:28:37Z</time>
      </trkpt>
      <trkpt lat="46.97024" lon="-0.92976">
        <ele>128</ele>
        <time>2021-12-30T19:28:59Z</time>
      </trkpt>
      <trkpt lat="46.97011" lon="-0.92978">
        <ele>127</ele>
        <time>2021-12-30T19:29:16Z</time>
      </trkpt>
      <trkpt lat="46.96964" lon="-0.92963">
        <ele>126</ele>
        <time>2021-12-30T19:30:21Z</time>
      </trkpt>
      <trkpt lat="46.9695" lon="-0.92949">
        <ele>126</ele>
        <time>2021-12-30T19:30:43Z</time>
      </trkpt>
      <trkpt lat="46.96928" lon="-0.92906">
        <ele>125</ele>
        <time>2021-12-30T19:31:32Z</time>
      </trkpt>
      <trkpt lat="46.96882" lon="-0.92867">
        <ele>120</ele>
        <time>2021-12-30T19:32:43Z</time>
      </trkpt>
      <trkpt lat="46.96858" lon="-0.9284">
        <ele>117</ele>
        <time>2021-12-30T19:33:23Z</time>
      </trkpt>
      <trkpt lat="46.96849" lon="-0.92839">
        <ele>116</ele>
        <time>2021-12-30T19:33:35Z</time>
      </trkpt>
      <trkpt lat="46.96822" lon="-0.92852">
        <ele>112</ele>
        <time>2021-12-30T19:34:13Z</time>
      </trkpt>
      <trkpt lat="46.9681" lon="-0.92867">
        <ele>110</ele>
        <time>2021-12-30T19:34:34Z</time>
      </trkpt>
      <trkpt lat="46.96803" lon="-0.92869">
        <ele>109</ele>
        <time>2021-12-30T19:34:44Z</time>
      </trkpt>
      <trkpt lat="46.96777" lon="-0.92908">
        <ele>107</ele>
        <time>2021-12-30T19:35:34Z</time>
      </trkpt>
      <trkpt lat="46.96764" lon="-0.92951">
        <ele>108</ele>
        <time>2021-12-30T19:36:16Z</time>
      </trkpt>
      <trkpt lat="46.96744" lon="-0.92993">
        <ele>109</ele>
        <time>2021-12-30T19:37:03Z</time>
      </trkpt>
      <trkpt lat="46.96751" lon="-0.93018">
        <ele>112</ele>
        <time>2021-12-30T19:37:28Z</time>
      </trkpt>
      <trkpt lat="46.96808" lon="-0.931">
        <ele>122</ele>
        <time>2021-12-30T19:39:14Z</time>
      </trkpt>
      <trkpt lat="46.96824" lon="-0.93107">
        <ele>123</ele>
        <time>2021-12-30T19:39:37Z</time>
      </trkpt>
      <trkpt lat="46.96837" lon="-0.93119">
        <ele>124</ele>
        <time>2021-12-30T19:39:57Z</time>
      </trkpt>
      <trkpt lat="46.96856" lon="-0.93179">
        <ele>128</ele>
        <time>2021-12-30T19:40:57Z</time>
      </trkpt>
      <trkpt lat="46.96881" lon="-0.93215">
        <ele>129</ele>
        <time>2021-12-30T19:41:44Z</time>
      </trkpt>
      <trkpt lat="46.96895" lon="-0.93259">
        <ele>130</ele>
        <time>2021-12-30T19:42:28Z</time>
      </trkpt>
      <trkpt lat="46.96901" lon="-0.93261">
        <ele>130</ele>
        <time>2021-12-30T19:42:36Z</time>
      </trkpt>
      <trkpt lat="46.96911" lon="-0.93256">
        <ele>130</ele>
        <time>2021-12-30T19:42:51Z</time>
      </trkpt>
      <trkpt lat="46.96916" lon="-0.93249">
        <ele>130</ele>
        <time>2021-12-30T19:43:00Z</time>
      </trkpt>
      <trkpt lat="46.96965" lon="-0.93219">
        <ele>130</ele>
        <time>2021-12-30T19:44:11Z</time>
      </trkpt>
      <trkpt lat="46.96972" lon="-0.93217">
        <ele>130</ele>
        <time>2021-12-30T19:44:20Z</time>
      </trkpt>
      <trkpt lat="46.96987" lon="-0.93222">
        <ele>130</ele>
        <time>2021-12-30T19:44:41Z</time>
      </trkpt>
      <trkpt lat="46.9702" lon="-0.93278">
        <ele>133</ele>
        <time>2021-12-30T19:45:48Z</time>
      </trkpt>
      <trkpt lat="46.97099" lon="-0.93446">
        <ele>140</ele>
        <time>2021-12-30T19:48:54Z</time>
      </trkpt>
      <trkpt lat="46.97108" lon="-0.93452">
        <ele>140</ele>
        <time>2021-12-30T19:49:07Z</time>
      </trkpt>
      <trkpt lat="46.97148" lon="-0.93462">
        <ele>139</ele>
        <time>2021-12-30T19:50:01Z</time>
      </trkpt>
      <trkpt lat="46.97189" lon="-0.93484">
        <ele>138</ele>
        <time>2021-12-30T19:51:00Z</time>
      </trkpt>
      <trkpt lat="46.9721" lon="-0.93497">
        <ele>137</ele>
        <time>2021-12-30T19:51:30Z</time>
      </trkpt>
      <trkpt lat="46.97231" lon="-0.93517">
        <ele>136</ele>
        <time>2021-12-30T19:52:03Z</time>
      </trkpt>
      <trkpt lat="46.97284" lon="-0.93601">
        <ele>132</ele>
        <time>2021-12-30T19:53:48Z</time>
      </trkpt>
      <trkpt lat="46.97302" lon="-0.93637">
        <ele>131</ele>
        <time>2021-12-30T19:54:28Z</time>
      </trkpt>
      <trkpt lat="46.97313" lon="-0.93694">
        <ele>129</ele>
        <time>2021-12-30T19:55:22Z</time>
      </trkpt>
      <trkpt lat="46.97324" lon="-0.93711">
        <ele>129</ele>
        <time>2021-12-30T19:55:43Z</time>
      </trkpt>
      <trkpt lat="46.97346" lon="-0.93736">
        <ele>128</ele>
        <time>2021-12-30T19:56:21Z</time>
      </trkpt>
      <trkpt lat="46.97387" lon="-0.93761">
        <ele>126</ele>
        <time>2021-12-30T19:57:20Z</time>
      </trkpt>
      <trkpt lat="46.97438" lon="-0.93813">
        <ele>121</ele>
        <time>2021-12-30T19:58:43Z</time>
      </trkpt>
      <trkpt lat="46.97478" lon="-0.93826">
        <ele>117</ele>
        <time>2021-12-30T19:59:37Z</time>
      </trkpt>
      <trkpt lat="46.97531" lon="-0.93856">
        <ele>113</ele>
        <time>2021-12-30T20:00:53Z</time>
      </trkpt>
      <trkpt lat="46.97567" lon="-0.9391">
        <ele>109</ele>
        <time>2021-12-30T20:02:02Z</time>
      </trkpt>
      <trkpt lat="46.97568" lon="-0.93922">
        <ele>108</ele>
        <time>2021-12-30T20:02:13Z</time>
      </trkpt>
    </trkseg>
  </trk>
</gpx>